Time;durP1;ratioP1;P1;durP2;ratioP2;P2;SDS_P1;SDS_P2;PMS_P1;PMS_P2;Temp;Humidity;BMP_temperature;BMP_pressure;BME280_temperature;BME280_humidity;BME280_pressure;Samples;Min_cycle;Max_cycle;Signal;HPM_P1;HPM_P2
2022/09/28 00:00:16;;;;;;;0.73;0.73;;;9.30;99.90;;;;;;5054386;28;20194;-72
2022/09/28 00:02:41;;;;;;;0.40;0.40;;;9.40;99.90;;;;;;5054338;28;20184;-70
2022/09/28 00:05:07;;;;;;;0.60;0.60;;;9.60;99.90;;;;;;5054678;28;20592;-71
2022/09/28 00:07:33;;;;;;;0.40;0.40;;;9.40;99.90;;;;;;5054705;28;20207;-70
2022/09/28 00:09:58;;;;;;;0.40;0.40;;;9.40;99.90;;;;;;5053764;28;20419;-69
2022/09/28 00:12:24;;;;;;;0.70;0.70;;;9.40;99.90;;;;;;5054230;28;20194;-70
2022/09/28 00:14:50;;;;;;;0.70;0.50;;;;;;;;;;5054112;28;20174;-72
2022/09/28 00:17:19;;;;;;;0.30;0.30;;;9.30;99.90;;;;;;5054412;28;20184;-71
2022/09/28 00:19:44;;;;;;;0.60;0.57;;;9.30;99.90;;;;;;5054295;28;20411;-71
2022/09/28 00:22:10;;;;;;;0.40;0.40;;;9.50;99.90;;;;;;5054107;28;20543;-71
2022/09/28 00:24:36;;;;;;;0.43;0.43;;;9.40;99.90;;;;;;5053818;28;20638;-71
2022/09/28 00:27:02;;;;;;;0.40;0.40;;;9.30;99.90;;;;;;5053904;28;20182;-72
2022/09/28 00:29:30;;;;;;;0.55;0.40;;;9.30;99.90;;;;;;5053986;28;20174;-70
2022/09/28 00:32:01;;;;;;;0.40;0.40;;;9.30;99.90;;;;;;5054135;28;20667;-70
2022/09/28 00:34:27;;;;;;;10.13;2.45;;;9.30;99.90;;;;;;5053956;28;20543;-72
2022/09/28 00:36:53;;;;;;;0.40;0.40;;;9.20;99.90;;;;;;5054027;28;20247;-69
2022/09/28 00:39:19;;;;;;;0.30;0.30;;;9.20;99.90;;;;;;5053973;28;20178;-73
2022/09/28 00:41:45;;;;;;;0.40;0.40;;;9.50;99.90;;;;;;5053599;28;20790;-72
2022/09/28 00:44:42;;;;;;;0.40;0.40;;;9.30;99.90;;;;;;5053619;28;20661;-69
2022/09/28 00:47:26;;;;;;;0.68;0.50;;;9.40;99.90;;;;;;5052616;28;20705;-70
2022/09/28 00:49:54;;;;;;;0.40;0.40;;;9.40;99.90;;;;;;5054377;28;20165;-72
2022/09/28 00:52:34;;;;;;;0.40;0.40;;;9.20;99.90;;;;;;5053564;28;20558;-69
2022/09/28 00:55:03;;;;;;;0.32;0.32;;;9.30;99.90;;;;;;5052488;28;20173;-73
2022/09/28 00:57:30;;;;;;;0.30;0.30;;;9.40;99.90;;;;;;5053613;28;20162;-71
2022/09/28 00:59:58;;;;;;;0.38;0.38;;;9.30;99.90;;;;;;5053640;28;20200;-69
2022/09/28 01:02:23;;;;;;;1.48;0.55;;;9.30;99.90;;;;;;5053454;28;20186;-69
2022/09/28 01:04:51;;;;;;;0.50;0.50;;;9.40;99.90;;;;;;5053351;28;20264;-69
2022/09/28 01:07:17;;;;;;;0.35;0.35;;;9.30;99.90;;;;;;5053584;28;20172;-71
2022/09/28 01:09:44;;;;;;;0.30;0.30;;;9.50;99.90;;;;;;5053549;28;20283;-72
2022/09/28 01:12:10;;;;;;;0.40;0.40;;;9.30;99.90;;;;;;5053365;28;20654;-70
2022/09/28 01:14:37;;;;;;;0.30;0.30;;;9.40;99.90;;;;;;5053130;28;20177;-71
2022/09/28 01:17:12;;;;;;;0.43;0.43;;;9.50;99.90;;;;;;5053586;28;20409;-72
2022/09/28 01:19:50;;;;;;;0.40;0.40;;;9.60;99.90;;;;;;5053359;28;20191;-72
2022/09/28 01:22:27;;;;;;;0.30;0.30;;;9.30;99.90;;;;;;5055499;28;20184;-71
2022/09/28 01:25:10;;;;;;;0.30;0.30;;;9.30;99.90;;;;;;5057498;28;20172;-70
2022/09/28 01:27:46;;;;;;;0.40;0.40;;;9.40;99.90;;;;;;5057376;28;20543;-72
2022/09/28 01:30:17;;;;;;;0.30;0.30;;;9.30;99.90;;;;;;5057580;28;20200;-69
2022/09/28 01:32:55;;;;;;;0.50;0.50;;;9.30;99.90;;;;;;5057016;28;20173;-72
2022/09/28 01:35:26;;;;;;;0.30;0.30;;;9.40;99.90;;;;;;5057444;28;20223;-71
2022/09/28 01:38:12;;;;;;;0.30;0.30;;;9.20;99.90;;;;;;5057218;28;20209;-72
2022/09/28 01:40:39;;;;;;;0.40;0.40;;;9.30;99.90;;;;;;5057240;28;20204;-70
2022/09/28 01:43:09;;;;;;;0.30;0.30;;;9.30;99.90;;;;;;5057000;28;20253;-71
2022/09/28 01:45:45;;;;;;;0.30;0.30;;;9.40;99.90;;;;;;5057370;28;20176;-72
2022/09/28 01:48:16;;;;;;;0.40;0.40;;;9.30;99.90;;;;;;5057043;28;20157;-70
2022/09/28 01:50:45;;;;;;;0.40;0.40;;;9.30;99.90;;;;;;5056972;28;20192;-71
2022/09/28 01:53:52;;;;;;;0.35;0.35;;;9.30;99.90;;;;;;5057000;28;20178;-71
2022/09/28 01:56:27;;;;;;;0.30;0.30;;;9.40;99.90;;;;;;5054993;28;20173;-72
2022/09/28 01:59:22;;;;;;;1.05;0.80;;;9.50;99.90;;;;;;5056608;28;20185;-71
2022/09/28 02:01:57;;;;;;;0.30;0.30;;;9.50;99.90;;;;;;5056567;28;20221;-69
2022/09/28 02:04:31;;;;;;;0.30;0.30;;;9.40;99.90;;;;;;5056610;28;20165;-72
2022/09/28 02:07:05;;;;;;;0.75;0.75;;;9.40;99.90;;;;;;5057171;28;20244;-71
2022/09/28 02:09:57;;;;;;;0.40;0.40;;;9.50;99.90;;;;;;5056894;28;20180;-71
2022/09/28 02:12:41;;;;;;;0.30;0.30;;;9.50;99.90;;;;;;5056153;28;20209;-70
2022/09/28 02:15:21;;;;;;;0.50;0.50;;;9.70;99.90;;;;;;5056701;28;20213;-69
2022/09/28 02:17:48;;;;;;;0.30;0.30;;;9.50;99.90;;;;;;5056694;28;20718;-72
2022/09/28 02:20:15;;;;;;;0.30;0.30;;;9.50;99.90;;;;;;5056460;28;20210;-73
2022/09/28 02:22:46;;;;;;;0.40;0.40;;;9.60;99.90;;;;;;5056309;28;20177;-71
2022/09/28 02:25:56;;;;;;;0.40;0.40;;;9.50;99.90;;;;;;5056498;28;20177;-72
2022/09/28 02:28:21;;;;;;;0.30;0.30;;;9.40;99.90;;;;;;5056009;28;20196;-71
2022/09/28 02:30:47;;;;;;;0.40;0.40;;;9.50;99.90;;;;;;5056192;28;20193;-69
2022/09/28 02:33:31;;;;;;;0.30;0.30;;;9.50;99.90;;;;;;5055610;28;20623;-72
2022/09/28 02:35:59;;;;;;;0.73;0.73;;;9.50;99.90;;;;;;5056333;28;20227;-69
2022/09/28 02:38:25;;;;;;;0.30;0.30;;;9.50;99.90;;;;;;5056556;28;20196;-71
2022/09/28 02:41:04;;;;;;;0.30;0.30;;;9.60;99.90;;;;;;5055968;28;20212;-73
2022/09/28 02:43:51;;;;;;;0.40;0.40;;;9.70;99.90;;;;;;5055996;28;20158;-72
2022/09/28 02:46:27;;;;;;;0.40;0.40;;;9.60;99.90;;;;;;5055870;28;20166;-70
2022/09/28 02:49:11;;;;;;;0.30;0.30;;;9.60;99.90;;;;;;5055984;28;20220;-71
2022/09/28 02:52:07;;;;;;;1.27;0.60;;;9.60;99.90;;;;;;5055714;28;20281;-71
2022/09/28 02:54:35;;;;;;;0.68;0.68;;;9.60;99.90;;;;;;5055591;28;20249;-72
2022/09/28 02:57:38;;;;;;;0.30;0.30;;;9.50;99.90;;;;;;5055941;28;20170;-72
2022/09/28 03:00:13;;;;;;;0.40;0.40;;;9.50;99.90;;;;;;5055621;28;20671;-69
2022/09/28 03:03:04;;;;;;;0.30;0.30;;;9.50;99.90;;;;;;5055423;28;20182;-70
2022/09/28 03:06:02;;;;;;;0.30;0.30;;;9.50;99.90;;;;;;5055814;28;20665;-71
2022/09/28 03:08:52;;;;;;;0.30;0.30;;;9.60;99.90;;;;;;5055575;28;20178;-70
2022/09/28 03:11:27;;;;;;;0.30;0.30;;;9.60;99.90;;;;;;5055692;28;20582;-71
2022/09/28 03:13:54;;;;;;;0.30;0.30;;;9.70;99.90;;;;;;5055471;28;20170;-69
2022/09/28 03:16:19;;;;;;;0.30;0.30;;;9.70;99.90;;;;;;5055828;28;20189;-72
2022/09/28 03:18:45;;;;;;;0.40;0.40;;;9.70;99.90;;;;;;5055729;28;20533;-71
2022/09/28 03:21:12;;;;;;;0.40;0.40;;;9.70;99.90;;;;;;5055191;28;20217;-73
2022/09/28 03:23:38;;;;;;;0.30;0.30;;;10.80;99.90;;;;;;5055282;28;20397;-71
2022/09/28 03:26:04;;;;;;;0.40;0.40;;;9.70;99.90;;;;;;5055273;28;20194;-71
2022/09/28 03:28:30;;;;;;;0.30;0.30;;;9.70;99.90;;;;;;5055381;28;20227;-72
2022/09/28 03:30:56;;;;;;;0.30;0.30;;;9.80;99.90;;;;;;5055203;28;20186;-69
2022/09/28 03:33:21;;;;;;;0.50;0.50;;;9.80;99.90;;;;;;5054970;28;20280;-70
2022/09/28 03:35:49;;;;;;;0.30;0.30;;;9.80;99.90;;;;;;5055195;28;20968;-71
2022/09/28 03:38:17;;;;;;;0.30;0.30;;;9.80;99.90;;;;;;5055151;28;20489;-72
2022/09/28 03:40:43;;;;;;;0.30;0.30;;;9.80;99.90;;;;;;5054978;28;20210;-69
2022/09/28 03:43:10;;;;;;;0.40;0.40;;;9.80;99.90;;;;;;5054617;28;20175;-72
2022/09/28 03:45:35;;;;;;;0.30;0.30;;;9.90;99.90;;;;;;5054212;28;20256;-70
2022/09/28 03:48:01;;;;;;;0.80;0.80;;;9.90;99.90;;;;;;5054896;28;20185;-70
2022/09/28 03:50:27;;;;;;;0.40;0.40;;;9.90;99.90;;;;;;5054841;28;20190;-72
2022/09/28 03:52:53;;;;;;;0.30;0.30;;;9.90;99.90;;;;;;5054566;28;20169;-70
2022/09/28 03:55:18;;;;;;;0.30;0.30;;;9.90;99.90;;;;;;5054635;28;20178;-72
2022/09/28 03:57:44;;;;;;;0.60;0.60;;;9.90;99.90;;;;;;5054637;28;20681;-72
2022/09/28 04:00:10;;;;;;;0.30;0.30;;;9.90;99.90;;;;;;5054572;28;20204;-70
2022/09/28 04:02:36;;;;;;;0.40;0.40;;;9.90;99.90;;;;;;5054260;28;20284;-72
2022/09/28 04:05:01;;;;;;;0.30;0.30;;;9.90;99.90;;;;;;5054649;28;20201;-72
2022/09/28 04:07:27;;;;;;;0.47;0.47;;;9.90;99.90;;;;;;5054550;28;20170;-69
2022/09/28 04:09:53;;;;;;;0.30;0.30;;;9.90;99.90;;;;;;5054359;28;20163;-71
2022/09/28 04:12:18;;;;;;;0.50;0.50;;;9.70;99.90;;;;;;5054249;28;20918;-72
2022/09/28 04:14:44;;;;;;;0.30;0.30;;;9.70;99.90;;;;;;5054244;28;20200;-71
2022/09/28 04:17:09;;;;;;;0.30;0.30;;;9.80;99.90;;;;;;5054489;28;20170;-69
2022/09/28 04:19:35;;;;;;;0.80;0.70;;;;;;;;;;5054449;28;20177;-71
2022/09/28 04:22:01;;;;;;;0.30;0.30;;;9.80;99.90;;;;;;5054207;28;20236;-72
2022/09/28 04:24:27;;;;;;;0.30;0.30;;;9.80;99.90;;;;;;5054009;28;20907;-72
2022/09/28 04:29:14;;;;;;;1.37;1.27;;;9.80;99.90;;;;;;5053994;28;20174;-70
2022/09/28 04:29:41;;;;;;;0.40;0.40;;;9.80;99.90;;;;;;5053886;28;20708;-71
2022/09/28 04:32:09;;;;;;;0.30;0.30;;;9.80;99.90;;;;;;5053827;28;20214;-70
2022/09/28 04:34:34;;;;;;;0.40;0.40;;;9.80;99.90;;;;;;5053672;28;20170;-71
2022/09/28 04:37:00;;;;;;;0.30;0.30;;;9.80;99.90;;;;;;5053790;28;20171;-71
2022/09/28 04:39:26;;;;;;;0.30;0.30;;;9.80;99.90;;;;;;5054084;28;20507;-72
2022/09/28 04:41:51;;;;;;;0.30;0.30;;;9.80;99.90;;;;;;5053726;28;20206;-71
2022/09/28 04:44:17;;;;;;;0.30;0.30;;;10.00;99.90;;;;;;5053734;28;20180;-70
2022/09/28 04:46:43;;;;;;;0.30;0.30;;;10.00;99.90;;;;;;5053951;28;20166;-69
2022/09/28 04:49:09;;;;;;;0.30;0.30;;;10.00;99.90;;;;;;5053872;28;20219;-72
2022/09/28 04:51:35;;;;;;;0.40;0.40;;;9.90;99.90;;;;;;5053544;28;20186;-72
2022/09/28 04:54:00;;;;;;;0.30;0.30;;;9.90;99.90;;;;;;5052281;28;20182;-72
2022/09/28 04:56:26;;;;;;;0.40;0.40;;;10.00;99.90;;;;;;5053543;28;20639;-70
2022/09/28 04:58:52;;;;;;;0.30;0.30;;;10.00;99.90;;;;;;5053714;28;20198;-70
2022/09/28 05:01:19;;;;;;;0.30;0.30;;;10.00;99.90;;;;;;5053421;28;20753;-71
2022/09/28 05:03:45;;;;;;;0.30;0.30;;;10.10;99.90;;;;;;5053411;28;20166;-72
2022/09/28 05:06:14;;;;;;;0.30;0.30;;;10.10;99.90;;;;;;5053909;28;20182;-72
2022/09/28 05:08:41;;;;;;;0.30;0.30;;;10.20;99.90;;;;;;5053504;28;20170;-71
2022/09/28 05:11:10;;;;;;;0.30;0.30;;;10.10;99.90;;;;;;5053413;28;20251;-72
2022/09/28 05:13:41;;;;;;;0.60;0.52;;;10.20;99.90;;;;;;5053327;28;20170;-72
2022/09/28 05:16:08;;;;;;;0.40;0.40;;;10.20;99.90;;;;;;5053610;28;20185;-70
2022/09/28 05:18:34;;;;;;;0.30;0.30;;;10.10;99.90;;;;;;5053254;28;20174;-72
2022/09/28 05:21:00;;;;;;;0.30;0.30;;;10.10;99.90;;;;;;5053217;28;20210;-71
2022/09/28 05:23:26;;;;;;;0.37;0.37;;;10.20;99.90;;;;;;5053263;28;20412;-69
2022/09/28 05:25:52;;;;;;;0.40;0.40;;;10.10;99.90;;;;;;5053244;28;20167;-70
2022/09/28 05:28:26;;;;;;;0.40;0.40;;;10.20;99.90;;;;;;5053427;28;20902;-69
2022/09/28 05:30:52;;;;;;;0.40;0.40;;;10.30;99.90;;;;;;5053131;28;20189;-72
2022/09/28 05:33:18;;;;;;;0.30;0.30;;;10.30;99.90;;;;;;5053460;28;20701;-72
2022/09/28 05:35:43;;;;;;;0.30;0.30;;;10.30;99.90;;;;;;5053438;28;20174;-71
2022/09/28 05:38:09;;;;;;;0.40;0.40;;;10.40;99.90;;;;;;5053506;28;20174;-69
2022/09/28 05:40:34;;;;;;;0.30;0.30;;;10.30;99.90;;;;;;5053213;28;20201;-70
2022/09/28 05:43:01;;;;;;;0.30;0.30;;;10.30;99.90;;;;;;5052990;28;20178;-70
2022/09/28 05:45:28;;;;;;;0.40;0.40;;;10.30;99.90;;;;;;5053262;28;20239;-70
2022/09/28 05:47:54;;;;;;;0.30;0.30;;;10.30;99.90;;;;;;5053315;28;20174;-72
2022/09/28 05:50:20;;;;;;;0.30;0.30;;;10.40;99.90;;;;;;5053025;28;20171;-72
2022/09/28 05:52:45;;;;;;;0.30;0.30;;;10.50;99.90;;;;;;5052858;28;20486;-72
2022/09/28 05:55:11;;;;;;;0.30;0.30;;;10.50;99.90;;;;;;5053346;28;20784;-72
2022/09/28 05:57:37;;;;;;;0.30;0.30;;;10.50;99.90;;;;;;5052783;28;20826;-71
2022/09/28 06:00:07;;;;;;;0.50;0.50;;;10.60;99.90;;;;;;5052999;28;20650;-72
2022/09/28 06:02:34;;;;;;;0.30;0.30;;;10.60;99.90;;;;;;5052770;28;20248;-71
2022/09/28 06:04:59;;;;;;;0.30;0.30;;;10.60;99.90;;;;;;5052935;28;20221;-72
2022/09/28 06:07:25;;;;;;;0.40;0.40;;;10.50;99.90;;;;;;5053806;28;20170;-70
2022/09/28 06:09:51;;;;;;;0.30;0.30;;;10.50;99.90;;;;;;5056630;28;20397;-72
2022/09/28 06:12:17;;;;;;;0.30;0.30;;;10.60;99.90;;;;;;5055779;28;20182;-72
2022/09/28 06:14:43;;;;;;;0.30;0.30;;;10.70;99.90;;;;;;5055514;28;20172;-73
2022/09/28 06:17:09;;;;;;;0.30;0.30;;;10.70;99.90;;;;;;5056581;28;20190;-72
2022/09/28 06:19:34;;;;;;;0.30;0.30;;;10.80;99.90;;;;;;5054853;28;20634;-69
2022/09/28 06:22:00;;;;;;;0.30;0.30;;;10.90;99.90;;;;;;5057003;28;20659;-71
2022/09/28 06:24:26;;;;;;;0.30;0.30;;;11.00;99.90;;;;;;5056616;28;20166;-72
2022/09/28 06:26:51;;;;;;;0.40;0.40;;;11.00;99.90;;;;;;5054682;28;20273;-70
2022/09/28 06:29:18;;;;;;;0.30;0.30;;;11.00;99.90;;;;;;5056563;28;20178;-71
2022/09/28 06:31:46;;;;;;;0.30;0.30;;;11.10;99.90;;;;;;5054887;28;20215;-72
2022/09/28 06:34:12;;;;;;;0.30;0.30;;;11.10;99.90;;;;;;5055975;28;20579;-70
2022/09/28 06:36:39;;;;;;;0.30;0.30;;;11.10;99.90;;;;;;5056556;28;20174;-69
2022/09/28 06:39:05;;;;;;;0.40;0.40;;;11.10;99.90;;;;;;5056181;28;20171;-70
2022/09/28 06:41:31;;;;;;;0.30;0.30;;;11.20;99.90;;;;;;5054640;28;20217;-69
2022/09/28 06:43:57;;;;;;;0.43;0.43;;;11.20;99.90;;;;;;5055732;28;20174;-71
2022/09/28 06:46:23;;;;;;;0.50;0.50;;;11.10;99.90;;;;;;5056002;28;20170;-71
2022/09/28 06:48:49;;;;;;;0.30;0.30;;;11.10;99.90;;;;;;5056033;28;20177;-70
2022/09/28 06:51:15;;;;;;;0.37;0.37;;;11.20;99.90;;;;;;5055961;28;20269;-70
2022/09/28 06:53:40;;;;;;;0.30;0.30;;;11.30;99.90;;;;;;5055794;28;20457;-69
2022/09/28 06:56:09;;;;;;;0.30;0.30;;;11.30;99.90;;;;;;5056009;28;20761;-71
2022/09/28 06:58:34;;;;;;;0.30;0.30;;;11.30;99.90;;;;;;5054329;28;20174;-70
2022/09/28 07:01:00;;;;;;;0.30;0.30;;;11.40;99.90;;;;;;5055829;28;20217;-68
2022/09/28 07:03:26;;;;;;;0.30;0.30;;;11.40;99.90;;;;;;5055581;28;20573;-70
2022/09/28 07:05:54;;;;;;;0.30;0.30;;;11.30;99.90;;;;;;5055129;28;20818;-72
2022/09/28 07:08:25;;;;;;;0.30;0.30;;;11.30;99.90;;;;;;5054771;28;20569;-69
2022/09/28 07:10:55;;;;;;;0.40;0.40;;;11.40;99.90;;;;;;5055707;28;20232;-71
2022/09/28 07:13:25;;;;;;;0.30;0.30;;;11.50;99.90;;;;;;5055446;28;20224;-69
2022/09/28 07:15:54;;;;;;;0.40;0.40;;;11.50;99.90;;;;;;5055706;28;20163;-71
2022/09/28 07:18:22;;;;;;;0.88;0.82;;;11.40;99.90;;;;;;5054911;28;20170;-69
2022/09/28 07:20:47;;;;;;;0.45;0.45;;;11.50;99.90;;;;;;5054136;28;20217;-69
2022/09/28 07:23:14;;;;;;;0.40;0.40;;;11.50;99.90;;;;;;5054020;28;20534;-71
2022/09/28 07:25:44;;;;;;;1.23;1.23;;;11.50;99.90;;;;;;5055413;28;20184;-69
2022/09/28 07:28:10;;;;;;;0.50;0.50;;;11.40;99.90;;;;;;5053875;28;20538;-69
2022/09/28 07:30:36;;;;;;;0.40;0.40;;;11.30;99.90;;;;;;5055093;28;20260;-69
2022/09/28 07:33:03;;;;;;;0.40;0.40;;;11.40;99.90;;;;;;5055239;28;20911;-70
2022/09/28 07:35:29;;;;;;;0.30;0.30;;;11.50;99.90;;;;;;5055212;28;20428;-70
2022/09/28 07:37:59;;;;;;;1.07;1.07;;;11.40;99.90;;;;;;5055235;28;20171;-71
2022/09/28 07:43:12;;;;;;;0.40;0.40;;;11.50;99.90;;;;;;5055277;28;20181;-70
2022/09/28 07:45:42;;;;;;;0.30;0.30;;;11.50;99.90;;;;;;5053966;28;20619;-71
2022/09/28 07:48:07;;;;;;;1.27;1.27;;;11.60;99.90;;;;;;5054137;28;20178;-69
2022/09/28 07:50:33;;;;;;;0.50;0.50;;;11.40;99.90;;;;;;5054896;28;20511;-71
2022/09/28 07:52:59;;;;;;;0.37;0.37;;;11.40;99.90;;;;;;5053142;28;20615;-71
2022/09/28 07:55:25;;;;;;;0.40;0.40;;;11.40;99.90;;;;;;5054774;28;20576;-70
2022/09/28 07:58:00;;;;;;;0.30;0.30;;;11.40;99.90;;;;;;5054749;28;20405;-69
2022/09/28 08:00:31;;;;;;;0.40;0.40;;;11.50;99.90;;;;;;5054584;28;20193;-69
2022/09/28 08:03:00;;;;;;;0.30;0.30;;;11.40;99.90;;;;;;5054386;28;20181;-71
2022/09/28 08:05:30;;;;;;;0.30;0.30;;;11.40;99.90;;;;;;5054721;28;20244;-69
2022/09/28 08:07:57;;;;;;;0.30;0.30;;;11.40;99.90;;;;;;5054529;28;20246;-71
2022/09/28 08:10:23;;;;;;;0.63;0.63;;;11.30;99.90;;;;;;5054382;28;20181;-70
2022/09/28 08:12:54;;;;;;;0.30;0.30;;;11.40;99.90;;;;;;5054190;28;20227;-69
2022/09/28 08:15:20;;;;;;;0.70;0.60;;;11.40;99.90;;;;;;5054509;28;20170;-70
2022/09/28 08:17:47;;;;;;;0.70;0.70;;;11.40;99.90;;;;;;5054017;28;20171;-71
2022/09/28 08:23:06;;;;;;;0.82;0.82;;;11.40;99.90;;;;;;5054132;28;20261;-71
2022/09/28 08:25:32;;;;;;;0.40;0.40;;;11.30;99.90;;;;;;5054334;28;20249;-72
2022/09/28 08:27:57;;;;;;;0.30;0.30;;;11.30;99.90;;;;;;5054108;28;20669;-71
2022/09/28 08:30:23;;;;;;;0.30;0.30;;;11.00;99.90;;;;;;5053567;28;20170;-68
2022/09/28 08:32:49;;;;;;;0.30;0.30;;;11.20;99.90;;;;;;5054018;28;20178;-70
2022/09/28 08:35:14;;;;;;;0.50;0.50;;;11.20;99.90;;;;;;5054326;28;20174;-70
2022/09/28 08:37:40;;;;;;;0.30;0.30;;;11.20;99.90;;;;;;5054069;28;20178;-71
2022/09/28 08:40:16;;;;;;;0.30;0.30;;;11.30;99.90;;;;;;5053845;28;20254;-72
2022/09/28 08:42:44;;;;;;;1.67;0.88;;;11.40;99.90;;;;;;5053692;28;20162;-71
2022/09/28 08:45:14;;;;;;;0.65;0.65;;;11.40;99.90;;;;;;5053882;28;20638;-71
2022/09/28 08:51:17;;;;;;;1.20;1.10;;;11.40;99.90;;;;;;5053932;28;20562;-71
2022/09/28 08:54:12;;;;;;;1.53;0.40;;;11.40;99.90;;;;;;5052255;28;20186;-70
2022/09/28 08:56:54;;;;;;;0.30;0.30;;;11.40;99.90;;;;;;5052931;28;20512;-70
2022/09/28 08:59:28;;;;;;;0.40;0.40;;;11.40;99.90;;;;;;5053594;28;20538;-71
2022/09/28 09:02:04;;;;;;;0.30;0.30;;;11.40;99.90;;;;;;5053609;28;20201;-69
2022/09/28 09:04:32;;;;;;;0.50;0.50;;;11.30;99.90;;;;;;5053397;28;20174;-71
2022/09/28 09:07:25;;;;;;;0.57;0.55;;;11.40;99.90;;;;;;5052097;28;20174;-68
2022/09/28 09:10:13;;;;;;;0.30;0.30;;;11.50;99.90;;;;;;5052791;28;20181;-69
2022/09/28 09:12:49;;;;;;;0.30;0.30;;;11.60;99.90;;;;;;5051083;28;20215;-70
2022/09/28 09:15:33;;;;;;;0.30;0.30;;;11.70;99.90;;;;;;5051203;28;20195;-70
2022/09/28 09:18:14;;;;;;;0.30;0.30;;;11.80;99.90;;;;;;5053370;28;20170;-71
2022/09/28 09:20:48;;;;;;;0.40;0.40;;;11.80;99.90;;;;;;5051608;28;20676;-71
2022/09/28 09:23:24;;;;;;;0.30;0.30;;;11.80;99.90;;;;;;5053341;28;20154;-71
2022/09/28 09:25:54;;;;;;;0.30;0.30;;;11.90;99.90;;;;;;5052407;28;20635;-70
2022/09/28 09:28:29;;;;;;;0.30;0.30;;;12.00;99.90;;;;;;5052371;28;20655;-70
2022/09/28 09:31:18;;;;;;;0.30;0.30;;;12.10;99.90;;;;;;5053561;28;20231;-70
2022/09/28 09:33:51;;;;;;;0.30;0.30;;;12.10;99.90;;;;;;5051554;28;20166;-69
2022/09/28 09:36:41;;;;;;;0.30;0.30;;;12.10;99.90;;;;;;5053752;28;20174;-71
2022/09/28 09:39:23;;;;;;;0.30;0.30;;;12.20;99.90;;;;;;5052559;28;20179;-70
2022/09/28 09:41:58;;;;;;;0.30;0.30;;;12.10;99.90;;;;;;5052118;28;20202;-72
2022/09/28 09:44:58;;;;;;;0.30;0.30;;;12.10;99.90;;;;;;5057136;28;20400;-71
2022/09/28 09:47:44;;;;;;;0.30;0.30;;;12.00;99.90;;;;;;5054092;28;20504;-72
2022/09/28 09:50:39;;;;;;;0.40;0.40;;;11.90;99.90;;;;;;5057150;28;20404;-69
2022/09/28 09:53:23;;;;;;;0.30;0.30;;;12.00;99.90;;;;;;5054152;28;20947;-71
2022/09/28 09:56:00;;;;;;;0.30;0.30;;;12.00;99.90;;;;;;5056842;28;20502;-69
2022/09/28 09:58:40;;;;;;;0.40;0.40;;;12.10;99.90;;;;;;5057022;28;20219;-72
2022/09/28 10:01:09;;;;;;;0.30;0.30;;;12.20;99.90;;;;;;5056863;28;20198;-71
2022/09/28 10:03:40;;;;;;;0.40;0.40;;;12.20;99.90;;;;;;5056625;28;20216;-72
2022/09/28 10:06:10;;;;;;;0.40;0.40;;;12.20;99.90;;;;;;5056997;28;20170;-69
2022/09/28 10:08:57;;;;;;;0.30;0.30;;;12.30;99.90;;;;;;5057024;28;20228;-72
2022/09/28 10:11:31;;;;;;;0.30;0.30;;;12.20;99.90;;;;;;5056851;28;21027;-71
2022/09/28 10:13:57;;;;;;;2.92;0.77;;;12.20;99.90;;;;;;5056479;28;20482;-70
2022/09/28 10:16:23;;;;;;;0.30;0.30;;;12.10;99.90;;;;;;5056721;28;20205;-70
2022/09/28 10:18:49;;;;;;;1.85;0.50;;;11.90;99.20;;;;;;5056488;28;20446;-69
2022/09/28 10:21:19;;;;;;;2.37;1.37;;;11.70;99.90;;;;;;5056354;28;20279;-71
2022/09/28 10:23:48;;;;;;;0.40;0.40;;;11.60;99.90;;;;;;5056450;28;20177;-70
2022/09/28 10:26:23;;;;;;;0.30;0.30;;;11.70;99.90;;;;;;5056358;28;20182;-71
2022/09/28 10:29:00;;;;;;;0.95;0.95;;;11.70;99.90;;;;;;5055847;28;20165;-70
2022/09/28 10:31:47;;;;;;;0.43;0.43;;;11.80;99.90;;;;;;5055041;28;20281;-71
2022/09/28 10:34:18;;;;;;;0.30;0.30;;;12.00;99.90;;;;;;5056374;28;20642;-69
2022/09/28 10:36:58;;;;;;;0.30;0.30;;;12.00;99.90;;;;;;5054277;28;20412;-71
2022/09/28 10:39:52;;;;;;;0.30;0.30;;;11.90;99.60;;;;;;5055342;28;20170;-71
2022/09/28 10:42:25;;;;;;;0.37;0.37;;;11.80;99.40;;;;;;5054706;28;20203;-69
2022/09/28 10:45:11;;;;;;;0.40;0.40;;;11.90;99.80;;;;;;5056345;28;20790;-71
2022/09/28 10:47:37;;;;;;;0.30;0.30;;;12.10;99.90;;;;;;5056013;28;20400;-70
2022/09/28 10:50:12;;;;;;;5.80;1.13;;;12.30;99.90;;;;;;5055031;28;20440;-69
2022/09/28 10:52:40;;;;;;;0.30;0.30;;;12.30;99.90;;;;;;5055546;28;20496;-70
2022/09/28 10:55:30;;;;;;;0.30;0.30;;;12.40;99.90;;;;;;5056023;28;20404;-70
2022/09/28 10:57:56;;;;;;;0.40;0.40;;;12.40;99.90;;;;;;5056494;28;20205;-70
2022/09/28 11:00:30;;;;;;;0.40;0.40;;;12.10;99.90;;;;;;5054143;28;20206;-70
2022/09/28 11:02:56;;;;;;;1.07;0.97;;;12.20;99.90;;;;;;5054522;28;20466;-70
2022/09/28 11:05:26;;;;;;;0.30;0.30;;;12.00;99.60;;;;;;5055546;28;20458;-70
2022/09/28 11:07:54;;;;;;;0.33;0.33;;;12.00;99.90;;;;;;5054853;28;20170;-69
2022/09/28 11:10:24;;;;;;;0.30;0.30;;;12.10;99.90;;;;;;5056110;28;20412;-70
2022/09/28 11:12:51;;;;;;;0.30;0.30;;;12.10;99.90;;;;;;5055638;28;20187;-70
2022/09/28 11:15:24;;;;;;;0.40;0.40;;;12.10;99.30;;;;;;5055875;28;20183;-68
2022/09/28 11:17:51;;;;;;;0.30;0.30;;;12.10;99.50;;;;;;5055631;28;20177;-71
2022/09/28 11:20:23;;;;;;;0.30;0.30;;;12.00;99.00;;;;;;5055829;28;20452;-72
2022/09/28 11:22:54;;;;;;;0.30;0.30;;;11.90;99.60;;;;;;5055824;28;20431;-72
2022/09/28 11:25:22;;;;;;;0.30;0.30;;;11.80;99.70;;;;;;5055437;28;20757;-71
2022/09/28 11:27:51;;;;;;;0.30;0.30;;;11.80;99.90;;;;;;5055376;28;20193;-71
2022/09/28 11:30:23;;;;;;;0.30;0.30;;;11.80;99.50;;;;;;5054741;28;20182;-70
2022/09/28 11:32:51;;;;;;;0.40;0.40;;;11.60;99.70;;;;;;5053617;28;20181;-68
2022/09/28 11:35:26;;;;;;;0.30;0.30;;;11.50;99.90;;;;;;5055337;28;20204;-68
2022/09/28 11:38:25;;;;;;;0.30;0.30;;;11.50;99.90;;;;;;5055314;28;20170;-68
2022/09/28 11:41:05;;;;;;;0.40;0.40;;;11.40;99.90;;;;;;5055112;28;20198;-70
2022/09/28 11:44:02;;;;;;;0.40;0.40;;;11.50;99.90;;;;;;5054904;28;20198;-70
2022/09/28 11:46:46;;;;;;;0.30;0.30;;;11.70;99.90;;;;;;5053846;28;20162;-71
2022/09/28 11:49:42;;;;;;;0.35;0.35;;;11.70;99.90;;;;;;5055172;28;20174;-68
2022/09/28 11:52:35;;;;;;;0.60;0.60;;;11.80;99.90;;;;;;5053693;28;20201;-71
2022/09/28 11:55:13;;;;;;;0.40;0.40;;;11.80;99.90;;;;;;5054773;28;20396;-71
2022/09/28 11:57:42;;;;;;;0.30;0.30;;;11.80;99.90;;;;;;5053968;28;20823;-71
2022/09/28 12:00:15;;;;;;;0.30;0.30;;;11.80;99.30;;;;;;5053576;28;20257;-71
2022/09/28 12:03:12;;;;;;;0.30;0.30;;;11.60;98.10;;;;;;5054518;28;20440;-71
2022/09/28 12:05:43;;;;;;;0.30;0.30;;;11.50;99.20;;;;;;5052281;28;20718;-71
2022/09/28 12:08:27;;;;;;;1.63;1.08;;;11.40;98.90;;;;;;5054638;28;20265;-71
2022/09/28 12:11:01;;;;;;;0.95;0.50;;;11.40;98.70;;;;;;5054625;28;20209;-70
2022/09/28 12:13:33;;;;;;;1.25;1.25;;;11.40;99.40;;;;;;5053970;28;20169;-71
2022/09/28 12:16:26;;;;;;;0.30;0.30;;;11.30;99.60;;;;;;5053559;28;20178;-70
2022/09/28 12:19:03;;;;;;;0.82;0.77;;;11.30;99.90;;;;;;5053482;28;20663;-72
2022/09/28 12:21:50;;;;;;;0.30;0.30;;;11.10;99.40;;;;;;5054217;28;20237;-71
2022/09/28 12:24:44;;;;;;;0.30;0.30;;;11.10;99.50;;;;;;5052526;28;20573;-72
2022/09/28 12:27:29;;;;;;;0.77;0.77;;;11.10;99.70;;;;;;5054098;28;20188;-69
2022/09/28 12:29:59;;;;;;;0.30;0.30;;;11.10;99.90;;;;;;5054708;28;20170;-71
2022/09/28 12:32:57;;;;;;;0.30;0.30;;;10.90;99.70;;;;;;5052715;28;20193;-68
2022/09/28 12:35:42;;;;;;;0.30;0.30;;;10.90;99.50;;;;;;5054187;28;20166;-72
2022/09/28 12:38:32;;;;;;;0.30;0.30;;;10.60;99.80;;;;;;5053705;28;20564;-69
2022/09/28 12:41:22;;;;;;;0.30;0.30;;;10.60;99.90;;;;;;5052755;28;20553;-70
2022/09/28 12:43:55;;;;;;;0.30;0.30;;;10.70;99.90;;;;;;5053799;28;20158;-70
2022/09/28 12:46:41;;;;;;;0.30;0.30;;;10.80;99.90;;;;;;5050862;28;20174;-72
2022/09/28 12:49:06;;;;;;;0.30;0.30;;;10.80;99.90;;;;;;5053965;28;20170;-69
2022/09/28 12:51:52;;;;;;;0.43;0.43;;;10.80;99.90;;;;;;5053682;28;20584;-71
2022/09/28 12:54:21;;;;;;;0.40;0.40;;;10.90;99.90;;;;;;5051446;28;20174;-69
2022/09/28 12:56:59;;;;;;;0.30;0.30;;;10.80;99.70;;;;;;5053354;28;20174;-71
2022/09/28 12:59:37;;;;;;;3.45;1.30;;;10.80;99.90;;;;;;5053109;28;20162;-70
2022/09/28 13:02:21;;;;;;;0.40;0.40;;;10.80;99.90;;;;;;5052718;28;20222;-71
2022/09/28 13:05:08;;;;;;;1.30;1.25;;;10.80;99.90;;;;;;5053287;28;20556;-69
2022/09/28 13:07:44;;;;;;;0.30;0.30;;;10.70;99.90;;;;;;5051798;28;20173;-69
2022/09/28 13:10:17;;;;;;;0.40;0.40;;;10.70;99.90;;;;;;5053613;28;20227;-71
2022/09/28 13:13:00;;;;;;;0.43;0.43;;;10.70;99.90;;;;;;5052665;28;20589;-72
2022/09/28 13:15:40;;;;;;;0.30;0.30;;;10.50;99.90;;;;;;5053856;28;20170;-71
2022/09/28 13:18:32;;;;;;;0.30;0.30;;;10.50;99.90;;;;;;5053793;28;20173;-72
2022/09/28 13:21:13;;;;;;;0.40;0.40;;;10.40;99.90;;;;;;5051551;28;20205;-72
2022/09/28 13:23:42;;;;;;;0.50;0.50;;;10.40;99.90;;;;;;5053453;28;20205;-71
2022/09/28 13:26:24;;;;;;;0.30;0.30;;;10.40;99.90;;;;;;5053480;28;20189;-72